• Join FlightAware (Why Join?)
  • Login
  • US Flag 
09:10PM EDT


 

Airport Tracker/Info


-or-


 

Live Flight TrackerFlight Track Log ✈ AWE3122 ✈ 17-Apr-2014 ✈ KELP - KLAX

Flight Track Log - Related Links

Times and Time Zones

All times are in EDT time to prevent confusion due to time zone crossing. See the AWE3122 flight status page for this flight to view local times or setup timezone preferences in your user account.

Time Position Orientation Groundspeed Altitude Reporting Facility
EDT Latitude Longitude Course Direction KTS MPH feet Rate Location/Type
02:31PM 31.8633 -106.3275 42° Northeast 211 243 6,600  Level Albuquerque Center
02:32PM 31.8864 -106.3075 36° Northeast 218 251 7,600 2,160 Climbing Albuquerque Center
02:33PM 31.9253 -106.3592 312° West 250 288 9,800 1,980 Climbing Albuquerque Center
02:34PM 31.9353 -106.4428 278° West 258 297 11,700 1,740 Climbing Albuquerque Center
02:35PM 31.9492 -106.5356 280° West 286 329 13,400 1,560 Climbing Albuquerque Center
02:36PM 31.9633 -106.6367 279° West 309 356 15,000 1,560 Climbing Albuquerque Center
02:37PM 31.9769 -106.7436 279° West 327 376 16,700 1,560 Climbing Albuquerque Center
02:38PM 31.9939 -106.8744 279° West 335 386 18,300 1,380 Climbing Albuquerque Center
02:39PM 32.0081 -106.9886 278° West 342 394 19,600 1,200 Climbing Albuquerque Center
02:40PM 32.0219 -107.1047 278° West 351 404 20,900 1,200 Climbing Albuquerque Center
02:41PM 32.0367 -107.2228 278° West 358 412 22,200 1,080 Climbing Albuquerque Center
02:42PM 32.0514 -107.3411 278° West 359 413 23,200 960 Climbing Albuquerque Center
02:43PM 32.0653 -107.4622 278° West 367 422 24,200 900 Climbing Albuquerque Center
02:44PM 32.0800 -107.5847 278° West 371 427 25,100 780 Climbing Albuquerque Center
02:45PM 32.0947 -107.7100 278° West 380 437 25,900 780 Climbing Albuquerque Center
02:46PM 32.1128 -107.8611 278° West 384 442 26,800 720 Climbing Albuquerque Center
02:47PM 32.1281 -107.9881 278° West 387 445 27,500 540 Climbing Albuquerque Center
02:48PM 32.1419 -108.1172 277° West 391 450 28,000 480 Climbing Albuquerque Center
02:49PM 32.1569 -108.2475 278° West 397 457 28,500 480 Climbing Albuquerque Center
02:50PM 32.1719 -108.3800 278° West 402 463 29,000 480 Climbing Albuquerque Center
02:51PM 32.1867 -108.5097 278° West 408 470 29,600 540 Climbing Albuquerque Center
02:52PM 32.2344 -108.6600 291° West 411 473 30,200 480 Climbing Albuquerque Center
02:53PM 32.2725 -108.7864 290° West 411 473 30,700 480 Climbing Albuquerque Center
02:54PM 32.3119 -108.9122 290° West 411 473 31,200 480 Climbing Albuquerque Center
02:55PM 32.3511 -109.0386 290° West 410 472 31,700 360 Climbing Albuquerque Center
02:56PM 32.3894 -109.1644 290° West 409 471 32,000 120 Climbing Albuquerque Center
02:58PM 32.4292 -109.2914 290° West 409 471 32,000  Level Albuquerque Center
02:59PM 32.4689 -109.4200 290° West 410 472 32,000  Level Albuquerque Center
03:00PM 32.5169 -109.5781 290° West 417 480 32,000  Level Albuquerque Center
03:01PM 32.5567 -109.7078 290° West 418 481 32,000  Level Albuquerque Center
03:02PM 32.5967 -109.8378 290° West 418 481 32,000  Level Albuquerque Center
03:03PM 32.6364 -109.9689 290° West 418 481 32,000  Level Albuquerque Center
03:04PM 32.6756 -110.0992 290° West 418 481 32,000  Level Albuquerque Center
03:05PM 32.7153 -110.2311 290° West 419 482 32,000  Level Albuquerque Center
03:06PM 32.7547 -110.3625 290° West 420 483 32,000  Level Albuquerque Center
03:07PM 32.8008 -110.5211 289° West 421 484 32,000  Level Albuquerque Center
03:08PM 32.8411 -110.6536 290° West 422 486 32,000  Level Albuquerque Center
03:09PM 32.8828 -110.7969 289° West 423 487 32,000  Level Albuquerque Center
03:10PM 32.9206 -110.9289 289° West 423 487 32,000  Level Albuquerque Center
03:11PM 32.9606 -111.0611 290° West 423 487 32,000  Level Albuquerque Center
03:12PM 32.9989 -111.1947 289° West 423 487 32,000  Level Albuquerque Center
03:13PM 33.0378 -111.3289 289° West 425 489 32,000  Level Albuquerque Center
03:14PM 33.0758 -111.4633 289° West 426 490 32,000  Level Albuquerque Center
03:15PM 33.1144 -111.5989 289° West 428 493 32,000  Level Albuquerque Center
03:16PM 33.1603 -111.7597 289° West 428 493 32,000  Level Albuquerque Center
03:17PM 33.1981 -111.8969 288° West 429 494 32,000  Level Albuquerque Center
03:18PM 33.2367 -112.0325 289° West 429 494 32,000  Level Albuquerque Center
03:19PM 33.2739 -112.1689 288° West 429 494 32,000  Level Albuquerque Center
03:20PM 33.3122 -112.3047 289° West 429 494 32,000  Level Albuquerque Center
03:21PM 33.3497 -112.4414 288° West 430 495 32,000  Level Albuquerque Center
03:22PM 33.3928 -112.5978 288° West 434 499 32,000  Level Albuquerque Center
03:23PM 33.4303 -112.7339 288° West 435 501 32,000  Level Albuquerque Center
03:24PM 33.4697 -112.8714 289° West 435 501 32,000  Level Albuquerque Center
03:25PM 33.5189 -113.0025 294° West 435 501 32,000  Level Albuquerque Center
03:26PM 33.5753 -113.1625 293° West 436 502 32,000  Level Albuquerque Center
03:27PM 33.6225 -113.2972 293° West 437 503 32,000  Level Albuquerque Center
03:29PM 33.6658 -113.4183 293° West 437 503 32,000  Level Albuquerque Center
03:30PM 33.7231 -113.5808 293° West 437 503 32,000  Level Albuquerque Center
03:31PM 33.7711 -113.7158 293° West 439 505 32,000  Level Albuquerque Center
03:32PM 33.8058 -113.8558 287° West 437 503 32,000  Level Albuquerque Center
03:33PM 33.8314 -113.9997 282° West 438 504 32,000  Level Albuquerque Center
03:33PM 33.8528 -114.1267 282° West 440 506 32,000  Level Los Angeles Center
03:35PM 33.8764 -114.2703 281° West 440 506 32,000  Level Los Angeles Center
03:36PM 33.9017 -114.4142 282° West 440 506 32,000  Level Los Angeles Center
03:37PM 33.9236 -114.5581 280° West 440 506 32,000  Level Los Angeles Center
03:38PM 33.9508 -114.7300 281° West 440 506 32,000  Level Los Angeles Center
03:39PM 33.9736 -114.8747 281° West 440 506 32,000 -60 Level Los Angeles Center
03:41PM 34.0206 -115.1617 281° West 440 506 31,900  Descending Los Angeles Center
03:42PM 34.0431 -115.3069 281° West 440 506 32,000  Climbing Los Angeles Center
03:43PM 34.0642 -115.4506 280° West 439 505 32,000  Level Los Angeles Center
03:44PM 34.0919 -115.6231 281° West 439 505 32,000  Level Los Angeles Center
03:45PM 34.1100 -115.7667 279° West 439 505 32,000  Level Los Angeles Center
03:46PM 34.0922 -115.9072 261° West 434 499 32,000  Level Los Angeles Center
03:47PM 34.0719 -116.0492 260° West 429 494 32,000  Level Los Angeles Center
03:48PM 34.0500 -116.1917 260° West 431 496 32,000 -540 Level Los Angeles Center
03:49PM 34.0244 -116.3619 260° West 431 496 30,900 -2,040 Descending Los Angeles Center
03:50PM 34.0031 -116.5144 260° West 460 529 27,900 -2,940 Descending Los Angeles Center
03:51PM 33.9922 -116.6633 265° West 451 519 24,900 -2,880 Descending Los Angeles Center
03:52PM 33.9800 -116.8075 264° West 439 505 21,900 -2,880 Descending Los Angeles Center
03:53PM 33.9681 -116.9422 264° West 411 473 18,900 -2,400 Descending Los Angeles Center
03:54PM 33.9572 -117.0831 265° West 357 411 17,000 -1,080 Descending Los Angeles Center
03:55PM 33.9500 -117.2167 266° West 344 396 16,600 -840 Descending Southern California TRACON
03:56PM 33.9333 -117.3167 259° West 314 361 15,300 -1,440 Descending Southern California TRACON
03:57PM 33.9500 -117.4167 281° West 319 367 13,800 -1,440 Descending Southern California TRACON
03:58PM 33.9833 -117.5167 292° West 314 361 12,500 -1,320 Descending Southern California TRACON
03:59PM 34.0167 -117.6167 292° West 355 409 11,200 -1,260 Descending Southern California TRACON
04:00PM 34.0000 -117.7167 259° West 286 329 10,200 -1,200 Descending Southern California TRACON
04:01PM 34.0000 -117.8000 270° West 279 321 9,000 -1,140 Descending Southern California TRACON
04:02PM 33.9833 -117.8833 256° West 255 293 8,000 -1,080 Descending Southern California TRACON
04:03PM 33.9833 -117.9667 270° West 244 281 6,900 -1,140 Descending Southern California TRACON
04:04PM 33.9667 -118.0500 256° West 244 281 5,800 -1,200 Descending Southern California TRACON
04:05PM 33.9667 -118.1333 270° West 234 269 4,600 -1,200 Descending Southern California TRACON
04:06PM 33.9500 -118.2000 253° West 224 258 3,400 -1,200 Descending Southern California TRACON
04:07PM 33.9500 -118.2667 270° West 198 228 2,300 -1,080 Descending Southern California TRACON
04:08PM 33.9500 -118.3167 270° West 148 170 1,300 -960 Descending Southern California TRACON
04:09PM 33.9333 -118.3667 248° West 138 159 400 -900 Descending Southern California TRACON
04:12PM 33.9333 -118.4000 270° West  Level FlightAware Approximate